Flight Track Log - Related Links

Times and Time Zones

All times are in EDT time to prevent confusion due to time zone crossing. See the ASQ4577 flight status page for this flight to view local times or setup timezone preferences in your user account.

Time Position Orientation Groundspeed Altitude Reporting Facility
EDT Latitude Longitude Course Direction KTS MPH feet Rate Location/Type
Tue 08:36:41 AM 41.3917 -81.8978 259° West 165 190 2,100  Level Cleveland Center
Tue 08:37:23 AM 41.3744 -81.9444 244° Southwest 218 251 2,700 1,075 Climbing Cleveland Center
Tue 08:37:48 AM 41.3678 -81.9775 255° West 295 339 3,300 1,906 Climbing Cleveland Center
Tue 08:38:48 AM 41.3417 -82.0656 248° West 256 295 5,400 2,200 Climbing Cleveland Center
Tue 08:39:48 AM 41.3133 -82.1533 247° West 256 295 7,700 2,150 Climbing Cleveland Center
Tue 08:40:00 AM 41.2533 -82.2939 242° Southwest  Level Estimated
Tue 08:40:48 AM 41.2869 -82.2439 249° West 261 300 9,700  Level Cleveland Center
Tue 08:41:00 AM 41.2140 -82.4034 240° Southwest  Level Estimated
Tue 08:41:48 AM 41.2564 -82.3425 248° West 279 321 10,600  Level Cleveland Center
Tue 08:42:00 AM 41.1746 -82.5127 259° West  Level Estimated
Tue 08:42:48 AM 41.2233 -82.4550 249° West 318 366 11,200  Level Cleveland Center
Tue 08:43:48 AM 41.1775 -82.5694 242° Southwest 342 394 12,200 1,150 Climbing Cleveland Center
Tue 08:44:48 AM 41.1317 -82.6894 243° Southwest 359 413 13,500 1,150 Climbing Cleveland Center
Tue 08:45:48 AM 41.0983 -82.7958 247° West 359 413 14,500 1,100 Climbing Cleveland Center
Tue 08:46:48 AM 41.0586 -82.9156 246° West 359 413 15,700 1,250 Climbing Cleveland Center
Tue 08:47:48 AM 41.0203 -83.0436 248° West 365 420 17,000 1,200 Climbing Cleveland Center
Tue 08:48:48 AM 40.9800 -83.1658 246° West 370 426 18,100 1,150 Climbing Cleveland Center
Tue 08:49:48 AM 40.9397 -83.2908 247° West 375 432 19,300 1,250 Climbing Cleveland Center
Tue 08:50:48 AM 40.9011 -83.4156 248° West 375 432 20,600 1,286 Climbing Cleveland Center
Tue 08:51:26 AM 40.8747 -83.4992 247° West 371 427 21,400 848 Climbing Indianapolis Center
Tue 08:52:27 AM 40.8322 -83.6253 246° West 372 428 22,000 293 Climbing Indianapolis Center
Tue 08:53:29 AM 40.7875 -83.7617 247° West 398 458 22,000  Level Indianapolis Center
Tue 08:54:31 AM 40.7428 -83.8994 247° West 413 475 22,000  Level Indianapolis Center
Tue 08:55:33 AM 40.6947 -84.0417 246° West 426 490 22,000  Level Indianapolis Center
Tue 08:56:35 AM 40.6483 -84.1853 247° West 427 491 22,000  Level Indianapolis Center
Tue 08:57:37 AM 40.5897 -84.3589 246° West 434 499 22,000  Level Indianapolis Center
Tue 08:58:38 AM 40.5422 -84.5033 247° West 434 499 22,000  Level Indianapolis Center
Tue 08:59:40 AM 40.4919 -84.6489 246° West 439 505 22,000  Level Indianapolis Center
Tue 09:00:42 AM 40.4428 -84.7939 246° West 436 502 22,000  Level Indianapolis Center
Tue 09:01:44 AM 40.3928 -84.9392 246° West 438 504 22,000  Level Indianapolis Center
Tue 09:02:46 AM 40.3433 -85.0847 246° West 438 504 22,000  Level Indianapolis Center
Tue 09:03:48 AM 40.2833 -85.2592 246° West 439 505 22,000 -1,536 Level Indianapolis Center
Tue 09:04:51 AM 40.2344 -85.4014 246° West 433 498 18,800 -3,145 Descending Indianapolis Center
Tue 09:05:52 AM 40.1836 -85.5197 241° Southwest 387 445 15,500 -3,122 Descending Indianapolis Center
Tue 09:06:54 AM 40.1358 -85.6297 240° Southwest 359 413 12,400 -2,371 Descending Indianapolis Center
Tue 09:07:56 AM 40.0950 -85.7267 241° Southwest 320 368 10,600 -1,742 Descending Indianapolis Center
Tue 09:08:58 AM 40.0569 -85.8125 240° Southwest 282 325 8,800 -1,610 Descending Indianapolis Center
Tue 09:09:59 AM 40.0142 -85.9117 241° Southwest 266 306 7,300 -1,122 Descending Indianapolis Center
Tue 09:11:01 AM 39.9678 -85.9858 231° Southwest 266 306 6,500 -919 Descending Indianapolis Center
Tue 09:12:03 AM 39.9158 -86.0525 225° Southwest 265 305 5,400 -1,065 Descending Indianapolis Center
Tue 09:13:05 AM 39.8642 -86.1192 225° Southwest 263 303 4,300 -1,113 Descending Indianapolis Center
Tue 09:14:07 AM 39.8133 -86.1844 225° Southwest 261 300 3,100 -1,113 Descending Indianapolis Center
Tue 09:15:09 AM 39.7719 -86.2378 225° Southwest 229 264 2,000 -871 Descending Indianapolis Center
Tue 09:16:11 AM 39.7425 -86.2744 224° Southwest 180 207 1,300 -576 Descending Indianapolis Center
Tue 09:17:14 AM 39.7139 -86.3131 226° Southwest 156 180 800 -476 Descending Indianapolis Center

Login

Don't have an account? Register now (free) for customized features, flight alerts, and more!